Time;durP1;ratioP1;P1;durP2;ratioP2;P2;SDS_P1;SDS_P2;PMS_P1;PMS_P2;Temp;Humidity;BMP_temperature;BMP_pressure;BME280_temperature;BME280_humidity;BME280_pressure;Samples;Min_cycle;Max_cycle;Signal;HPM_P1;HPM_P2
2021/06/06 00:01:09;;;;;;;29.30;10.68;;;16.90;99.90;;;;;;5037848;28;20061;-87
2021/06/06 00:03:48;;;;;;;27.48;11.20;;;14.50;99.90;;;;;;5037537;28;20017;-87
2021/06/06 00:06:17;;;;;;;22.33;9.98;;;14.50;99.90;;;;;;5037458;28;20049;-87
2021/06/06 00:08:43;;;;;;;26.20;10.07;;;14.70;99.90;;;;;;5018545;28;20018;-87
2021/06/06 00:11:19;;;;;;;25.83;9.88;;;14.50;99.90;;;;;;5019335;28;20038;-87
2021/06/06 00:13:45;;;;;;;28.83;10.10;;;14.50;99.90;;;;;;5019075;28;20029;-87
2021/06/06 00:16:23;;;;;;;22.33;9.10;;;14.60;99.90;;;;;;5019522;28;20136;-87
2021/06/06 00:18:48;;;;;;;28.98;10.05;;;14.50;99.90;;;;;;5036701;28;20048;-87
2021/06/06 00:21:14;;;;;;;21.25;9.80;;;14.50;99.90;;;;;;5024073;28;20026;-85
2021/06/06 00:23:40;;;;;;;26.60;9.88;;;14.50;99.90;;;;;;5074521;22;20021;-81
2021/06/06 00:26:08;;;;;;;26.50;11.40;;;14.50;99.90;;;;;;5041701;28;20029;-79
2021/06/06 00:28:33;;;;;;;29.67;11.17;;;14.50;99.90;;;;;;5042658;28;20044;-79
2021/06/06 00:31:00;;;;;;;34.95;12.05;;;14.50;99.90;;;;;;5042750;28;20025;-79
2021/06/06 00:33:27;;;;;;;27.15;11.85;;;14.50;99.90;;;;;;5042344;28;20025;-79
2021/06/06 00:35:53;;;;;;;29.30;11.50;;;14.50;99.90;;;;;;5059834;28;20059;-79
2021/06/06 00:38:19;;;;;;;32.55;12.05;;;14.50;99.90;;;;;;5060225;28;20013;-78
2021/06/06 00:40:44;;;;;;;28.02;11.77;;;14.50;99.90;;;;;;5060397;28;20017;-81
2021/06/06 00:43:10;;;;;;;25.15;10.70;;;14.50;99.90;;;;;;5041672;28;20111;-80
2021/06/06 00:45:37;;;;;;;26.05;10.35;;;14.50;99.90;;;;;;5041269;28;20021;-81
2021/06/06 00:48:05;;;;;;;28.05;11.52;;;14.50;99.90;;;;;;5042195;28;20021;-81
2021/06/06 00:50:34;;;;;;;26.20;12.70;;;14.50;99.90;;;;;;5044678;28;20500;-81
2021/06/06 00:53:09;;;;;;;23.75;10.77;;;14.50;99.90;;;;;;5033415;28;20045;-81
2021/06/06 00:55:36;;;;;;;19.73;9.75;;;14.50;99.90;;;;;;5058618;28;20048;-81
2021/06/06 00:58:07;;;;;;;23.90;10.35;;;14.50;99.90;;;;;;5041148;28;20037;-81
2021/06/06 01:00:37;;;;;;;24.38;11.18;;;14.50;99.90;;;;;;5041902;28;20395;-81
2021/06/06 01:03:04;;;;;;;24.90;10.20;;;14.50;99.90;;;;;;5024689;28;20025;-81
2021/06/06 01:05:35;;;;;;;21.20;9.68;;;14.50;99.90;;;;;;5059431;28;20024;-81
2021/06/06 01:08:04;;;;;;;26.40;10.15;;;14.50;99.90;;;;;;5055985;28;20026;-81
2021/06/06 01:10:30;;;;;;;28.73;10.93;;;14.50;99.90;;;;;;5025052;28;20033;-81
2021/06/06 01:13:02;;;;;;;21.23;9.02;;;14.40;99.90;;;;;;5042753;28;20029;-80
2021/06/06 01:15:36;;;;;;;22.25;9.52;;;14.40;99.90;;;;;;5040555;28;20063;-81
2021/06/06 01:18:08;;;;;;;26.35;9.48;;;14.40;99.90;;;;;;5044566;28;20032;-81
2021/06/06 01:20:47;;;;;;;26.85;10.88;;;14.50;99.90;;;;;;5041265;28;20026;-81
2021/06/06 01:23:37;;;;;;;24.67;10.32;;;14.40;99.90;;;;;;5024291;28;20071;-81
2021/06/06 01:26:28;;;;;;;19.30;9.07;;;14.40;99.90;;;;;;5042510;28;20163;-80
2021/06/06 01:29:11;;;;;;;24.33;10.60;;;14.40;99.90;;;;;;5043116;28;20017;-84
2021/06/06 01:31:40;;;;;;;25.23;10.73;;;14.40;99.90;;;;;;5039616;28;20024;-79
2021/06/06 01:34:09;;;;;;;23.13;10.23;;;14.40;99.90;;;;;;5039798;28;20063;-80
2021/06/06 01:36:52;;;;;;;23.42;10.07;;;14.50;99.90;;;;;;5027718;28;20482;-78
2021/06/06 01:39:31;;;;;;;26.23;11.98;;;14.50;99.90;;;;;;5020623;28;20536;-79
2021/06/06 01:42:01;;;;;;;27.13;12.02;;;14.50;99.90;;;;;;5021884;28;20457;-80
2021/06/06 01:44:30;;;;;;;27.55;12.40;;;14.40;99.90;;;;;;5027501;28;20108;-79
2021/06/06 01:47:11;;;;;;;34.55;12.85;;;14.50;99.90;;;;;;5055959;28;20017;-80
2021/06/06 01:49:44;;;;;;;34.75;13.35;;;14.50;99.90;;;;;;5058115;28;20035;-84
2021/06/06 01:52:11;;;;;;;41.92;15.48;;;14.50;99.90;;;;;;5038766;28;20021;-80
2021/06/06 01:54:38;;;;;;;36.60;13.40;;;14.40;99.90;;;;;;5038797;28;20442;-78
2021/06/06 01:57:08;;;;;;;38.28;14.63;;;14.40;99.90;;;;;;5037326;28;20477;-79
2021/06/06 01:59:38;;;;;;;40.95;15.23;;;14.40;99.90;;;;;;5037931;28;20092;-79
2021/06/06 02:02:05;;;;;;;44.80;16.75;;;14.40;99.90;;;;;;5038510;28;20104;-80
2021/06/06 02:04:33;;;;;;;38.00;15.40;;;14.40;99.90;;;;;;5031890;28;20441;-81
2021/06/06 02:07:22;;;;;;;38.42;15.82;;;14.80;99.90;;;;;;5038792;28;20017;-84
2021/06/06 02:09:53;;;;;;;42.08;15.90;;;14.40;99.90;;;;;;5005213;28;20029;-78
2021/06/06 02:12:23;;;;;;;41.47;15.23;;;14.40;99.90;;;;;;5037008;28;20030;-80
2021/06/06 02:14:49;;;;;;;41.13;15.57;;;14.40;99.90;;;;;;5027948;28;20029;-79
2021/06/06 02:17:28;;;;;;;40.55;16.25;;;14.40;99.90;;;;;;5057891;28;20036;-80
2021/06/06 02:19:54;;;;;;;37.97;14.35;;;14.40;99.90;;;;;;5057223;28;20024;-81
2021/06/06 02:22:20;;;;;;;34.42;13.13;;;14.40;99.90;;;;;;5040286;28;20021;-80
2021/06/06 02:24:46;;;;;;;31.23;13.05;;;14.40;99.90;;;;;;5046889;28;20393;-79
2021/06/06 02:27:25;;;;;;;34.00;13.75;;;14.40;99.90;;;;;;5019246;28;20021;-78
2021/06/06 02:29:55;;;;;;;37.55;15.50;;;14.40;99.90;;;;;;5037320;28;20029;-80
2021/06/06 02:32:44;;;;;;;38.95;16.00;;;14.40;99.90;;;;;;5036791;28;20056;-79
2021/06/06 02:35:30;;;;;;;38.47;16.05;;;14.40;99.90;;;;;;5019800;28;20538;-81
2021/06/06 02:37:58;;;;;;;36.20;14.98;;;14.40;99.90;;;;;;5037305;28;20148;-79
2021/06/06 02:40:37;;;;;;;40.17;15.30;;;14.40;99.90;;;;;;5036703;28;20025;-81
2021/06/06 02:43:23;;;;;;;40.50;14.07;;;14.40;99.90;;;;;;5020603;28;20290;-78
2021/06/06 02:45:51;;;;;;;36.47;13.80;;;14.40;99.90;;;;;;5040434;28;20056;-81
2021/06/06 02:48:25;;;;;;;37.05;15.25;;;14.40;99.90;;;;;;5019238;28;20040;-81
2021/06/06 02:50:55;;;;;;;42.05;16.05;;;14.40;99.90;;;;;;5037750;28;20017;-78
2021/06/06 02:53:23;;;;;;;37.92;14.40;;;14.40;99.90;;;;;;5029653;28;20028;-80
2021/06/06 02:55:52;;;;;;;41.83;14.00;;;14.40;99.90;;;;;;5021344;28;20053;-80
2021/06/06 02:58:19;;;;;;;42.15;14.60;;;14.40;99.90;;;;;;5020900;28;20029;-80
2021/06/06 03:00:49;;;;;;;36.22;14.77;;;14.40;99.90;;;;;;5042085;28;20025;-80
2021/06/06 03:03:26;;;;;;;31.70;13.50;;;14.50;99.90;;;;;;5023740;28;20057;-80
2021/06/06 03:05:55;;;;;;;33.03;13.57;;;14.40;99.90;;;;;;5040273;28;20024;-81
2021/06/06 03:08:21;;;;;;;32.15;14.90;;;14.40;99.90;;;;;;5046124;28;20018;-80
2021/06/06 03:10:46;;;;;;;33.70;12.77;;;14.40;99.90;;;;;;5044459;28;20436;-80
2021/06/06 03:13:18;;;;;;;31.92;13.05;;;14.40;99.90;;;;;;5044226;28;20029;-80
2021/06/06 03:15:48;;;;;;;33.45;12.55;;;14.40;99.90;;;;;;5028197;28;20041;-80
2021/06/06 03:18:15;;;;;;;31.85;12.13;;;14.50;99.90;;;;;;5025907;28;20021;-80
2021/06/06 03:20:47;;;;;;;32.67;11.95;;;14.40;99.90;;;;;;5043869;28;20035;-79
2021/06/06 03:23:18;;;;;;;26.05;9.73;;;14.40;99.90;;;;;;5042240;28;20029;-80
2021/06/06 03:25:56;;;;;;;25.50;10.30;;;14.40;99.90;;;;;;5046972;28;20033;-81
2021/06/06 03:28:27;;;;;;;25.65;9.63;;;14.50;99.90;;;;;;5058694;22;20048;-80
2021/06/06 03:30:58;;;;;;;23.77;8.85;;;14.40;99.90;;;;;;5061728;28;20497;-80
2021/06/06 03:33:53;;;;;;;23.05;8.02;;;14.40;99.90;;;;;;5043466;28;20386;-80
2021/06/06 03:36:26;;;;;;;20.17;7.78;;;14.40;99.90;;;;;;5041861;28;20025;-79
2021/06/06 03:38:53;;;;;;;17.88;7.82;;;14.40;99.90;;;;;;5042882;28;20025;-83
2021/06/06 03:41:23;;;;;;;22.38;8.57;;;14.40;99.90;;;;;;5042713;28;20022;-80
2021/06/06 03:43:50;;;;;;;19.27;8.00;;;14.40;99.90;;;;;;5040525;28;20471;-81
2021/06/06 03:46:17;;;;;;;19.40;7.65;;;14.40;99.90;;;;;;5053732;23;20040;-80
2021/06/06 03:48:42;;;;;;;16.13;6.72;;;14.40;99.90;;;;;;5059540;28;20071;-80
2021/06/06 03:51:09;;;;;;;18.08;7.38;;;14.40;99.90;;;;;;5041528;28;20474;-83
2021/06/06 03:53:36;;;;;;;17.05;6.63;;;14.40;99.90;;;;;;5042056;28;20021;-81
2021/06/06 03:56:04;;;;;;;17.08;6.55;;;14.40;99.90;;;;;;5030941;28;20025;-79
2021/06/06 03:58:30;;;;;;;15.00;5.23;;;14.30;99.90;;;;;;5041116;28;20017;-84
2021/06/06 04:00:56;;;;;;;13.30;6.15;;;14.20;99.90;;;;;;5040604;28;20672;-81
2021/06/06 04:03:22;;;;;;;11.93;5.05;;;14.30;99.90;;;;;;5038749;28;20026;-80
2021/06/06 04:05:50;;;;;;;11.60;5.00;;;14.30;99.90;;;;;;5022356;28;20025;-80
2021/06/06 04:08:16;;;;;;;14.45;5.40;;;14.30;99.90;;;;;;5020858;28;20025;-79
2021/06/06 04:10:43;;;;;;;17.23;5.60;;;14.30;99.90;;;;;;5035427;28;20075;-79
2021/06/06 04:13:09;;;;;;;14.23;4.93;;;14.30;99.90;;;;;;5041361;28;20034;-80
2021/06/06 04:15:34;;;;;;;12.75;5.32;;;14.30;99.90;;;;;;5022342;28;20036;-80
2021/06/06 04:18:22;;;;;;;15.18;4.82;;;14.30;99.90;;;;;;5041086;28;20026;-81
2021/06/06 04:20:49;;;;;;;9.05;4.57;;;14.30;99.90;;;;;;5040354;28;20025;-81
2021/06/06 04:23:24;;;;;;;8.50;4.43;;;14.30;99.90;;;;;;5039828;28;20509;-79
2021/06/06 04:25:50;;;;;;;9.82;4.20;;;13.60;99.90;;;;;;5022364;28;20109;-80
2021/06/06 04:28:17;;;;;;;8.45;4.65;;;14.30;99.90;;;;;;5021574;28;20541;-81
2021/06/06 04:30:43;;;;;;;7.63;4.00;;;14.40;99.90;;;;;;5023238;28;20021;-79
2021/06/06 04:33:10;;;;;;;10.45;4.22;;;14.40;99.90;;;;;;5041496;28;20109;-80
2021/06/06 04:35:37;;;;;;;9.93;4.28;;;14.40;99.90;;;;;;5022375;28;20391;-81
2021/06/06 04:38:04;;;;;;;8.27;3.85;;;14.40;99.90;;;;;;5021497;28;20371;-79
2021/06/06 04:40:30;;;;;;;8.73;4.00;;;16.60;99.90;;;;;;5062611;22;20053;-78
2021/06/06 04:42:56;;;;;;;14.55;3.75;;;14.50;99.90;;;;;;5058480;28;20405;-77
2021/06/06 04:45:24;;;;;;;9.07;4.05;;;14.50;99.90;;;;;;5033664;28;20021;-77
2021/06/06 04:47:49;;;;;;;7.70;4.15;;;14.50;99.90;;;;;;5040045;28;20083;-79
2021/06/06 04:50:16;;;;;;;7.85;3.45;;;14.60;99.90;;;;;;5021612;28;20033;-80
2021/06/06 04:52:42;;;;;;;10.13;4.38;;;14.50;99.90;;;;;;5020932;28;20032;-79
2021/06/06 04:55:12;;;;;;;10.32;4.10;;;14.60;99.90;;;;;;5039193;28;20036;-78
2021/06/06 04:57:38;;;;;;;7.70;4.40;;;14.60;99.90;;;;;;5037917;28;20022;-79
2021/06/06 05:00:11;;;;;;;10.57;4.18;;;14.60;99.90;;;;;;5019678;28;20036;-79
2021/06/06 05:02:37;;;;;;;8.27;4.07;;;14.60;99.90;;;;;;5020897;28;20045;-79
2021/06/06 05:05:03;;;;;;;8.32;4.32;;;14.60;99.90;;;;;;5039560;28;20414;-79
2021/06/06 05:07:29;;;;;;;8.88;4.68;;;14.60;99.90;;;;;;5038231;28;20037;-77
2021/06/06 05:09:54;;;;;;;8.90;4.13;;;14.60;99.90;;;;;;5019448;28;20021;-78
2021/06/06 05:12:20;;;;;;;9.10;4.45;;;14.60;99.90;;;;;;5021592;28;20541;-78
2021/06/06 05:14:46;;;;;;;7.28;4.05;;;14.70;99.90;;;;;;5023338;28;20079;-79
2021/06/06 05:17:11;;;;;;;8.27;4.47;;;14.70;99.90;;;;;;5036397;28;20382;-77
2021/06/06 05:19:37;;;;;;;7.28;3.45;;;16.00;99.90;;;;;;5036158;28;20018;-78
2021/06/06 05:22:05;;;;;;;8.05;4.28;;;14.60;99.90;;;;;;5019204;28;20034;-79
2021/06/06 05:24:31;;;;;;;6.70;3.95;;;14.70;99.90;;;;;;5020464;28;20030;-79
2021/06/06 05:26:56;;;;;;;8.60;4.60;;;14.80;99.90;;;;;;5037065;28;20022;-78
2021/06/06 05:29:23;;;;;;;8.60;4.32;;;14.90;99.90;;;;;;5019116;28;20031;-78
2021/06/06 05:31:49;;;;;;;9.98;4.90;;;14.90;99.90;;;;;;5020516;28;20040;-78
2021/06/06 05:34:15;;;;;;;9.50;4.28;;;15.00;99.90;;;;;;5020323;28;20018;-79
2021/06/06 05:36:41;;;;;;;7.47;3.85;;;15.00;99.90;;;;;;5037361;28;20025;-78
2021/06/06 05:39:07;;;;;;;6.75;3.53;;;15.10;99.90;;;;;;5038160;28;20087;-80
2021/06/06 05:41:33;;;;;;;5.65;3.72;;;15.10;99.90;;;;;;5020039;28;20033;-79
2021/06/06 05:43:59;;;;;;;9.30;4.30;;;15.10;99.90;;;;;;5022900;28;20071;-82
2021/06/06 05:46:25;;;;;;;9.93;4.28;;;15.20;99.90;;;;;;5039226;28;20429;-80
2021/06/06 05:48:51;;;;;;;7.35;4.05;;;15.30;99.90;;;;;;5037710;28;20029;-83
2021/06/06 05:51:17;;;;;;;8.98;3.92;;;15.30;99.90;;;;;;5021851;28;20033;-80
2021/06/06 05:53:43;;;;;;;7.38;4.57;;;17.60;99.90;;;;;;5037723;28;20025;-79
2021/06/06 05:56:10;;;;;;;8.90;4.05;;;15.50;99.90;;;;;;5019564;28;20029;-83
2021/06/06 05:58:36;;;;;;;8.48;3.50;;;17.10;99.90;;;;;;5035093;28;20018;-79
2021/06/06 06:01:03;;;;;;;9.57;4.40;;;15.50;99.90;;;;;;5038483;28;20032;-78
2021/06/06 06:03:28;;;;;;;10.70;4.68;;;18.70;99.90;;;;;;5019727;28;20022;-80
2021/06/06 06:05:54;;;;;;;9.18;4.82;;;15.80;99.90;;;;;;5018605;28;20083;-79
2021/06/06 06:08:20;;;;;;;7.45;4.45;;;17.40;99.90;;;;;;5018215;28;20033;-79
2021/06/06 06:10:46;;;;;;;8.27;5.00;;;16.20;99.90;;;;;;5036540;28;20026;-78
2021/06/06 06:13:13;;;;;;;9.90;4.68;;;16.40;99.90;;;;;;5037522;28;20067;-79
2021/06/06 06:15:40;;;;;;;11.68;5.95;;;16.50;99.90;;;;;;5041113;28;20091;-80
2021/06/06 06:18:06;;;;;;;14.27;5.22;;;16.70;99.90;;;;;;5020856;28;20096;-79
2021/06/06 06:20:31;;;;;;;11.77;5.25;;;16.70;99.90;;;;;;5019005;28;20045;-79
2021/06/06 06:22:57;;;;;;;8.95;4.75;;;16.80;99.90;;;;;;5021079;28;20032;-79
2021/06/06 06:25:23;;;;;;;11.63;5.18;;;16.80;99.90;;;;;;5038532;28;20022;-78
2021/06/06 06:27:49;;;;;;;10.13;5.95;;;16.80;99.90;;;;;;5038314;28;20025;-82
2021/06/06 06:30:20;;;;;;;13.25;6.22;;;16.80;99.90;;;;;;5036957;28;20171;-77
2021/06/06 06:32:46;;;;;;;10.63;4.47;;;16.80;99.90;;;;;;5035868;23;20041;-86
2021/06/06 06:35:12;;;;;;;9.45;6.03;;;17.90;99.90;;;;;;5030149;28;20031;-86
2021/06/06 06:37:38;;;;;;;9.73;5.25;;;16.80;99.90;;;;;;5017859;28;20017;-86
2021/06/06 06:40:06;;;;;;;10.57;5.53;;;20.40;99.90;;;;;;5020576;28;20082;-84
2021/06/06 06:42:31;;;;;;;11.02;5.30;;;17.10;99.90;;;;;;5019144;28;20053;-87
2021/06/06 06:44:57;;;;;;;6.95;4.93;;;17.10;99.90;;;;;;5021756;28;20032;-87
2021/06/06 06:47:23;;;;;;;13.45;5.07;;;17.20;99.90;;;;;;5019977;28;20041;-87
2021/06/06 06:49:48;;;;;;;8.73;4.97;;;18.60;99.90;;;;;;5034838;28;20387;-87
2021/06/06 06:52:14;;;;;;;8.35;5.05;;;17.00;99.90;;;;;;5036005;28;20064;-87
2021/06/06 06:54:39;;;;;;;9.90;5.30;;;17.00;99.90;;;;;;5031973;28;20022;-87
2021/06/06 06:57:05;;;;;;;10.43;5.30;;;17.30;99.90;;;;;;5016176;28;20048;-88
2021/06/06 06:59:31;;;;;;;9.95;5.43;;;17.30;99.90;;;;;;5033656;28;20151;-88
2021/06/06 07:01:59;;;;;;;9.57;6.03;;;17.20;99.90;;;;;;5034853;28;20116;-88
2021/06/06 07:04:25;;;;;;;8.88;5.93;;;17.80;99.90;;;;;;5016302;28;20022;-88
2021/06/06 07:06:52;;;;;;;10.50;5.63;;;17.40;99.90;;;;;;5035331;28;20036;-87
2021/06/06 07:09:18;;;;;;;8.68;4.85;;;17.60;99.90;;;;;;5035675;28;20104;-88
2021/06/06 07:11:44;;;;;;;10.25;5.72;;;17.60;99.90;;;;;;5035931;28;20426;-88
2021/06/06 07:14:10;;;;;;;11.20;4.80;;;17.50;99.90;;;;;;5035606;28;20029;-88
2021/06/06 07:16:36;;;;;;;6.55;4.03;;;17.50;99.90;;;;;;5033811;28;20497;-88
2021/06/06 07:19:03;;;;;;;7.53;4.72;;;19.20;99.90;;;;;;5035650;28;20478;-87
2021/06/06 07:21:30;;;;;;;9.35;5.43;;;17.80;99.90;;;;;;5036321;28;20028;-87
2021/06/06 07:23:56;;;;;;;10.35;5.10;;;18.00;99.90;;;;;;5052409;28;20024;-88
2021/06/06 07:26:29;;;;;;;10.02;4.85;;;18.20;99.90;;;;;;5017509;28;20026;-87
2021/06/06 07:29:00;;;;;;;10.10;4.95;;;18.30;99.90;;;;;;5017207;28;20079;-88
2021/06/06 07:31:27;;;;;;;6.70;4.15;;;18.50;99.90;;;;;;5035576;28;20464;-88
2021/06/06 07:33:52;;;;;;;7.70;3.53;;;18.50;99.90;;;;;;5035820;28;20037;-89
2021/06/06 07:36:20;;;;;;;6.95;4.00;;;18.80;99.90;;;;;;5035028;28;20036;-88
2021/06/06 07:38:49;;;;;;;9.18;4.40;;;18.90;99.90;;;;;;5016071;28;20108;-88
2021/06/06 07:41:16;;;;;;;11.27;4.35;;;18.80;99.90;;;;;;5016196;28;20030;-87
2021/06/06 07:43:42;;;;;;;5.85;3.03;;;19.90;99.90;;;;;;5016365;28;20025;-88
2021/06/06 07:46:07;;;;;;;4.28;1.75;;;18.90;99.90;;;;;;5037565;28;20168;-88
2021/06/06 07:48:33;;;;;;;5.65;2.05;;;18.80;99.90;;;;;;5019891;28;20017;-89
2021/06/06 07:50:59;;;;;;;4.00;1.35;;;18.80;99.90;;;;;;5019897;28;20025;-88
2021/06/06 07:53:25;;;;;;;2.80;1.48;;;18.90;99.90;;;;;;5037497;28;20048;-88
2021/06/06 07:55:53;;;;;;;6.47;2.20;;;18.80;99.90;;;;;;5022221;28;20033;-88
2021/06/06 07:58:25;;;;;;;1.88;1.38;;;19.30;99.90;;;;;;5021600;28;20029;-87
2021/06/06 08:00:50;;;;;;;5.10;1.65;;;18.90;99.90;;;;;;5040945;28;20056;-88
2021/06/06 08:03:17;;;;;;;1.15;0.80;;;18.90;99.90;;;;;;5039420;28;20025;-88
2021/06/06 08:05:43;;;;;;;3.00;1.00;;;19.00;99.90;;;;;;5037811;28;20078;-88
2021/06/06 08:08:12;;;;;;;6.03;1.50;;;19.10;99.90;;;;;;5038188;28;20028;-88
2021/06/06 08:10:43;;;;;;;;;;;19.00;99.90;;;;;;5029904;28;20021;-88
2021/06/06 08:13:09;;;;;;;1.45;0.90;;;19.00;99.40;;;;;;5019111;28;19974;-87
2021/06/06 08:15:34;;;;;;;1.80;1.00;;;19.10;99.90;;;;;;5036911;28;20550;-88
2021/06/06 08:18:05;;;;;;;1.05;0.63;;;19.20;99.90;;;;;;5019481;28;20102;-88
2021/06/06 08:20:44;;;;;;;2.20;0.60;;;19.40;99.90;;;;;;5019082;28;20037;-88
2021/06/06 08:23:10;;;;;;;4.80;0.70;;;19.70;99.90;;;;;;5019086;28;20044;-87
2021/06/06 08:25:38;;;;;;;3.72;0.68;;;20.20;99.90;;;;;;5020367;28;20508;-87
2021/06/06 08:28:06;;;;;;;2.20;0.50;;;19.90;99.90;;;;;;5036834;28;20144;-88
2021/06/06 08:30:41;;;;;;;0.87;0.40;;;20.00;98.80;;;;;;5018769;28;20268;-88
2021/06/06 08:33:09;;;;;;;3.00;0.40;;;19.90;97.80;;;;;;5018993;28;20286;-88
2021/06/06 08:35:34;;;;;;;2.28;0.30;;;20.00;99.00;;;;;;5020351;28;20079;-88
2021/06/06 08:38:00;;;;;;;0.98;0.28;;;20.10;98.70;;;;;;5036761;28;20029;-87
2021/06/06 08:40:33;;;;;;;1.58;0.50;;;20.10;96.80;;;;;;5018919;28;20036;-88
2021/06/06 08:43:01;;;;;;;2.05;0.30;;;20.20;97.50;;;;;;5020936;28;20032;-86
2021/06/06 08:45:35;;;;;;;5.43;0.30;;;22.70;96.90;;;;;;5043678;28;20049;-85
2021/06/06 08:48:05;;;;;;;2.03;0.38;;;20.30;95.80;;;;;;5024705;28;20048;-85
2021/06/06 08:50:40;;;;;;;1.08;0.30;;;20.30;92.80;;;;;;5024517;28;20221;-86
2021/06/06 08:53:31;;;;;;;1.15;0.30;;;20.30;94.80;;;;;;5024707;28;20030;-86
2021/06/06 08:56:07;;;;;;;1.60;0.30;;;20.40;93.10;;;;;;5025268;28;20546;-85
2021/06/06 08:58:59;;;;;;;1.15;0.10;;;20.40;94.90;;;;;;5040242;28;20021;-85
2021/06/06 09:01:24;;;;;;;1.02;0.60;;;20.60;95.00;;;;;;5032683;28;20043;-85
2021/06/06 09:03:52;;;;;;;2.72;0.55;;;20.60;91.30;;;;;;5044537;28;20421;-86
2021/06/06 09:06:42;;;;;;;2.33;0.60;;;20.50;92.90;;;;;;5038610;28;20031;-87
2021/06/06 09:09:10;;;;;;;2.17;0.30;;;20.60;90.50;;;;;;5045674;28;20086;-87
2021/06/06 09:11:36;;;;;;;2.78;0.40;;;20.70;93.20;;;;;;5043695;28;20016;-89
2021/06/06 09:14:02;;;;;;;3.25;0.70;;;20.60;93.40;;;;;;5043774;28;20033;-88
2021/06/06 09:16:33;;;;;;;5.57;1.27;;;21.60;93.80;;;;;;5043333;28;20026;-85
2021/06/06 09:19:12;;;;;;;3.00;0.60;;;24.20;92.60;;;;;;5040364;28;20025;-87
2021/06/06 09:21:58;;;;;;;1.42;0.52;;;20.90;90.00;;;;;;5021427;28;20029;-87
2021/06/06 09:24:44;;;;;;;1.63;0.80;;;20.90;92.50;;;;;;5037672;28;20071;-89
2021/06/06 09:27:22;;;;;;;1.33;0.52;;;20.90;90.40;;;;;;5035306;28;20079;-88
2021/06/06 09:30:04;;;;;;;9.50;0.75;;;21.10;92.40;;;;;;5018899;28;20075;-89
2021/06/06 09:32:30;;;;;;;1.92;0.28;;;21.10;92.10;;;;;;5035590;28;20082;-89
2021/06/06 09:35:25;;;;;;;5.05;0.22;;;21.20;93.00;;;;;;5025137;28;20029;-91
2021/06/06 09:38:18;;;;;;;1.80;0.38;;;21.40;92.90;;;;;;5037308;28;20048;-89
2021/06/06 09:40:46;;;;;;;1.98;0.45;;;21.30;90.90;;;;;;5021151;28;20561;-86
2021/06/06 09:43:21;;;;;;;0.63;0.20;;;21.30;90.20;;;;;;5053649;28;20042;-87
2021/06/06 09:45:47;;;;;;;4.85;0.80;;;21.50;92.40;;;;;;5026415;28;20033;-90
2021/06/06 09:48:29;;;;;;;7.70;1.23;;;21.60;87.70;;;;;;5040441;28;20108;-85
2021/06/06 09:51:15;;;;;;;2.05;0.38;;;22.10;86.60;;;;;;5022982;28;20022;-85
2021/06/06 09:53:42;;;;;;;2.20;0.20;;;21.60;87.00;;;;;;5021902;28;20087;-85
2021/06/06 09:56:11;;;;;;;1.90;0.17;;;21.90;88.30;;;;;;5023112;28;20121;-85
2021/06/06 09:58:39;;;;;;;1.60;0.10;;;21.90;83.40;;;;;;5022607;28;20025;-85
2021/06/06 10:01:26;;;;;;;0.75;0.13;;;22.10;85.50;;;;;;5040440;28;20033;-86
2021/06/06 10:03:57;;;;;;;3.03;0.10;;;22.20;84.80;;;;;;5042570;28;20033;-86
2021/06/06 10:06:31;;;;;;;1.95;0.20;;;22.60;84.70;;;;;;5035973;28;20060;-86
2021/06/06 10:09:06;;;;;;;0.95;0.28;;;22.50;79.20;;;;;;5032045;28;20025;-85
2021/06/06 10:11:44;;;;;;;1.80;0.63;;;22.60;78.80;;;;;;5028721;28;20029;-86
2021/06/06 10:14:11;;;;;;;1.30;0.23;;;22.40;75.40;;;;;;5046262;28;20108;-87
2021/06/06 10:16:41;;;;;;;1.95;0.20;;;22.30;72.50;;;;;;5064545;28;20478;-91
2021/06/06 10:19:53;;;;;;;3.28;0.30;;;22.50;75.20;;;;;;5041166;28;20029;-91
2021/06/06 10:22:24;;;;;;;1.85;0.15;;;22.50;75.40;;;;;;4998421;28;20483;-90
2021/06/06 10:24:55;;;;;;;0.10;0.00;;;22.80;76.70;;;;;;5027622;28;20021;-87
2021/06/06 10:27:29;;;;;;;1.95;0.00;;;24.30;74.30;;;;;;5041211;28;20589;-88
2021/06/06 10:30:06;;;;;;;1.80;0.17;;;23.20;71.90;;;;;;5038016;28;20024;-89
2021/06/06 10:32:37;;;;;;;2.42;0.17;;;23.00;67.60;;;;;;5035985;28;20021;-89
2021/06/06 10:35:22;;;;;;;0.30;0.00;;;25.60;66.10;;;;;;5023839;28;20021;-89
2021/06/06 10:37:59;;;;;;;0.10;0.00;;;23.10;69.60;;;;;;5058522;28;20049;-91
2021/06/06 10:40:27;;;;;;;1.45;0.00;;;23.40;67.70;;;;;;5021625;28;20029;-91
2021/06/06 10:42:56;;;;;;;;;;;23.40;63.50;;;;;;5039209;28;20061;-91
2021/06/06 10:45:38;;;;;;;3.05;0.20;;;23.50;65.30;;;;;;5039306;28;19893;-90
2021/06/06 10:48:23;;;;;;;0.90;0.35;;;23.90;64.00;;;;;;5055665;28;20032;-90
2021/06/06 10:50:52;;;;;;;1.20;0.00;;;24.40;60.20;;;;;;5049630;28;20029;-91
2021/06/06 10:53:25;;;;;;;1.33;0.00;;;23.50;59.90;;;;;;5049460;28;20035;-91
2021/06/06 10:56:00;;;;;;;2.13;0.00;;;23.80;64.40;;;;;;5044861;28;20408;-90
2021/06/06 10:58:47;;;;;;;0.32;0.00;;;24.60;61.40;;;;;;5062841;28;20005;-91
2021/06/06 11:01:19;;;;;;;3.70;0.30;;;24.40;60.90;;;;;;5039529;28;20079;-91
2021/06/06 11:03:51;;;;;;;0.40;0.00;;;28.50;63.30;;;;;;5021045;28;20033;-88
2021/06/06 11:06:26;;;;;;;0.82;0.00;;;25.70;57.90;;;;;;5031385;28;20108;-90
2021/06/06 11:08:56;;;;;;;2.20;0.10;;;24.60;59.80;;;;;;5038654;28;20032;-89
2021/06/06 11:11:27;;;;;;;1.02;0.00;;;22.20;55.90;;;;;;5038407;28;20051;-88
2021/06/06 11:14:18;;;;;;;2.65;0.25;;;24.40;59.20;;;;;;5039688;28;20078;-89
2021/06/06 11:16:48;;;;;;;2.08;0.38;;;24.70;59.60;;;;;;5030744;28;20035;-91
2021/06/06 11:19:44;;;;;;;0.43;0.00;;;23.80;59.10;;;;;;5040015;28;20033;-91
2021/06/06 11:22:28;;;;;;;0.55;0.00;;;23.60;54.90;;;;;;5045291;28;20033;-91
2021/06/06 11:24:55;;;;;;;0.43;0.00;;;24.40;53.90;;;;;;5027882;28;20415;-89
2021/06/06 11:27:32;;;;;;;1.77;0.00;;;24.40;54.50;;;;;;5039664;28;20028;-90
2021/06/06 11:30:03;;;;;;;0.10;0.00;;;24.20;54.50;;;;;;5026013;28;20483;-90
2021/06/06 11:32:42;;;;;;;1.38;0.03;;;24.10;53.30;;;;;;5025622;28;20445;-89
2021/06/06 11:35:28;;;;;;;4.88;0.90;;;24.20;54.00;;;;;;5026923;28;20037;-89
2021/06/06 11:38:35;;;;;;;0.57;0.17;;;24.20;57.50;;;;;;5036763;28;20029;-89
2021/06/06 11:41:13;;;;;;;0.00;0.00;;;25.10;58.60;;;;;;5058966;28;20490;-89
2021/06/06 11:43:52;;;;;;;0.40;0.00;;;25.00;55.40;;;;;;5043710;28;20025;-88
2021/06/06 11:46:41;;;;;;;0.30;0.00;;;24.70;52.80;;;;;;5027871;28;20394;-88
2021/06/06 11:49:28;;;;;;;0.20;0.00;;;25.10;56.30;;;;;;5022973;28;20360;-90
2021/06/06 11:51:56;;;;;;;2.95;0.28;;;26.10;54.90;;;;;;5025473;28;20030;-88
2021/06/06 11:54:42;;;;;;;1.55;0.00;;;27.20;51.40;;;;;;5042521;28;20387;-90
2021/06/06 11:57:16;;;;;;;0.10;0.00;;;25.20;54.20;;;;;;5028099;28;20105;-89
2021/06/06 12:00:11;;;;;;;0.10;0.00;;;25.50;55.50;;;;;;5022804;28;20022;-89
2021/06/06 12:02:37;;;;;;;0.35;0.00;;;25.60;48.00;;;;;;4991411;28;20037;-90
2021/06/06 12:05:14;;;;;;;0.75;0.10;;;27.40;53.80;;;;;;5028951;28;20045;-90
2021/06/06 12:07:43;;;;;;;0.63;0.00;;;26.10;50.70;;;;;;5041780;28;20040;-90
2021/06/06 12:10:26;;;;;;;0.00;0.00;;;26.10;51.40;;;;;;5024415;28;20071;-91
2021/06/06 12:12:57;;;;;;;2.60;0.00;;;26.20;51.80;;;;;;5020287;28;20049;-91
2021/06/06 12:15:41;;;;;;;1.52;0.00;;;26.30;50.20;;;;;;5021635;28;20087;-90
2021/06/06 12:18:21;;;;;;;1.17;0.00;;;26.50;51.30;;;;;;5023274;28;20014;-90
2021/06/06 12:20:51;;;;;;;2.50;0.10;;;26.80;50.50;;;;;;5025008;28;20037;-90
2021/06/06 12:23:26;;;;;;;0.22;0.00;;;26.70;49.10;;;;;;5030492;22;20025;-77
2021/06/06 12:26:16;;;;;;;0.22;0.00;;;28.10;48.00;;;;;;5059403;23;20405;-78
2021/06/06 12:29:06;;;;;;;0.17;0.00;;;26.70;50.80;;;;;;5056147;28;20425;-77
2021/06/06 12:31:38;;;;;;;0.20;0.00;;;26.80;48.70;;;;;;5056888;28;20021;-77
2021/06/06 12:34:10;;;;;;;0.05;0.00;;;27.00;47.80;;;;;;5039107;28;20021;-77
2021/06/06 12:36:37;;;;;;;0.73;0.00;;;27.20;46.80;;;;;;5038233;28;20025;-77
2021/06/06 12:39:17;;;;;;;0.70;0.00;;;27.20;43.10;;;;;;5056428;28;20036;-77
2021/06/06 12:41:45;;;;;;;0.65;0.00;;;27.30;49.30;;;;;;5037754;28;20056;-78
2021/06/06 12:44:12;;;;;;;1.15;0.00;;;27.30;46.90;;;;;;5039989;28;20017;-78
2021/06/06 12:46:58;;;;;;;1.23;0.00;;;27.20;45.80;;;;;;5038543;28;20013;-79
2021/06/06 12:49:59;;;;;;;0.00;0.00;;;27.10;47.30;;;;;;5041397;28;20021;-78
2021/06/06 12:52:34;;;;;;;0.45;0.00;;;27.30;48.30;;;;;;5039487;28;20032;-77
2021/06/06 12:55:26;;;;;;;0.10;0.00;;;27.90;47.40;;;;;;5057896;28;20071;-78
2021/06/06 12:58:25;;;;;;;0.03;0.00;;;28.00;46.20;;;;;;5028842;28;20378;-78
2021/06/06 13:01:21;;;;;;;0.40;0.00;;;28.00;42.30;;;;;;5003397;28;20112;-77
2021/06/06 13:03:47;;;;;;;1.35;0.00;;;27.10;43.20;;;;;;5038416;28;20470;-78